sensor_id;sensor_type;location;lat;lon;timestamp;temperature;humidity
68480;DHT22;55469;48.934;12.050;2023-02-15T00:01:55;2.50;96.90
68480;DHT22;55469;48.934;12.050;2023-02-15T00:04:23;2.50;96.90
68480;DHT22;55469;48.934;12.050;2023-02-15T00:06:50;2.50;96.90
68480;DHT22;55469;48.934;12.050;2023-02-15T00:09:16;2.50;96.90
68480;DHT22;55469;48.934;12.050;2023-02-15T00:11:41;2.50;96.90
68480;DHT22;55469;48.934;12.050;2023-02-15T00:14:24;2.50;96.90
68480;DHT22;55469;48.934;12.050;2023-02-15T00:16:51;2.50;96.90
68480;DHT22;55469;48.934;12.050;2023-02-15T00:19:19;2.50;96.90
68480;DHT22;55469;48.934;12.050;2023-02-15T00:21:47;2.50;96.90
68480;DHT22;55469;48.934;12.050;2023-02-15T00:24:15;2.50;96.90
68480;DHT22;55469;48.934;12.050;2023-02-15T00:26:43;2.50;96.90
68480;DHT22;55469;48.934;12.050;2023-02-15T00:29:12;2.50;96.90
68480;DHT22;55469;48.934;12.050;2023-02-15T00:31:38;2.50;96.90
68480;DHT22;55469;48.934;12.050;2023-02-15T00:34:11;2.50;96.90
68480;DHT22;55469;48.934;12.050;2023-02-15T00:36:42;2.50;96.90
68480;DHT22;55469;48.934;12.050;2023-02-15T00:39:08;2.40;96.90
68480;DHT22;55469;48.934;12.050;2023-02-15T00:41:34;2.40;96.90
68480;DHT22;55469;48.934;12.050;2023-02-15T00:44:00;2.40;96.90
68480;DHT22;55469;48.934;12.050;2023-02-15T00:46:25;2.40;96.90
68480;DHT22;55469;48.934;12.050;2023-02-15T00:48:51;2.40;96.90
68480;DHT22;55469;48.934;12.050;2023-02-15T00:51:17;2.40;96.90
68480;DHT22;55469;48.934;12.050;2023-02-15T00:53:43;2.40;96.90
68480;DHT22;55469;48.934;12.050;2023-02-15T00:56:12;2.40;96.90
68480;DHT22;55469;48.934;12.050;2023-02-15T00:58:38;2.40;96.90
68480;DHT22;55469;48.934;12.050;2023-02-15T01:01:06;2.40;96.90
68480;DHT22;55469;48.934;12.050;2023-02-15T01:03:34;2.40;96.90
68480;DHT22;55469;48.934;12.050;2023-02-15T01:06:00;2.40;96.90
68480;DHT22;55469;48.934;12.050;2023-02-15T01:08:26;2.40;96.90
68480;DHT22;55469;48.934;12.050;2023-02-15T01:10:52;2.40;96.90
68480;DHT22;55469;48.934;12.050;2023-02-15T01:13:18;2.40;96.90
68480;DHT22;55469;48.934;12.050;2023-02-15T01:15:44;2.40;96.90
68480;DHT22;55469;48.934;12.050;2023-02-15T01:18:10;2.40;96.90
68480;DHT22;55469;48.934;12.050;2023-02-15T01:20:39;2.40;96.90
68480;DHT22;55469;48.934;12.050;2023-02-15T01:23:07;2.40;96.90
68480;DHT22;55469;48.934;12.050;2023-02-15T01:25:34;2.30;96.90
68480;DHT22;55469;48.934;12.050;2023-02-15T01:28:01;2.30;96.90
68480;DHT22;55469;48.934;12.050;2023-02-15T01:30:27;2.30;96.90
68480;DHT22;55469;48.934;12.050;2023-02-15T01:32:52;2.30;97.40
68480;DHT22;55469;48.934;12.050;2023-02-15T01:35:18;2.30;96.90
68480;DHT22;55469;48.934;12.050;2023-02-15T01:37:44;2.40;96.90
68480;DHT22;55469;48.934;12.050;2023-02-15T01:40:15;2.30;96.90
68480;DHT22;55469;48.934;12.050;2023-02-15T01:42:42;2.30;96.90
68480;DHT22;55469;48.934;12.050;2023-02-15T01:48:05;2.30;96.90
68480;DHT22;55469;48.934;12.050;2023-02-15T01:50:37;2.30;97.40
68480;DHT22;55469;48.934;12.050;2023-02-15T01:56:11;2.30;97.00
68480;DHT22;55469;48.934;12.050;2023-02-15T01:58:39;2.30;97.00
68480;DHT22;55469;48.934;12.050;2023-02-15T02:01:07;2.30;96.90
68480;DHT22;55469;48.934;12.050;2023-02-15T02:04:07;2.30;97.00
68480;DHT22;55469;48.934;12.050;2023-02-15T02:06:36;2.30;97.00
68480;DHT22;55469;48.934;12.050;2023-02-15T02:09:03;2.30;97.00
68480;DHT22;55469;48.934;12.050;2023-02-15T02:11:29;2.30;97.00
68480;DHT22;55469;48.934;12.050;2023-02-15T02:13:55;2.20;96.90
68480;DHT22;55469;48.934;12.050;2023-02-15T02:16:32;2.20;97.00
68480;DHT22;55469;48.934;12.050;2023-02-15T02:34:30;2.20;97.00
68480;DHT22;55469;48.934;12.050;2023-02-15T02:37:26;2.20;97.00
68480;DHT22;55469;48.934;12.050;2023-02-15T02:40:03;2.20;97.00
68480;DHT22;55469;48.934;12.050;2023-02-15T02:42:44;2.20;97.00
68480;DHT22;55469;48.934;12.050;2023-02-15T02:45:16;2.20;97.00
68480;DHT22;55469;48.934;12.050;2023-02-15T02:48:22;2.20;97.00
68480;DHT22;55469;48.934;12.050;2023-02-15T02:50:49;2.20;97.00
68480;DHT22;55469;48.934;12.050;2023-02-15T02:53:15;2.20;97.00
68480;DHT22;55469;48.934;12.050;2023-02-15T02:58:42;2.20;97.00
68480;DHT22;55469;48.934;12.050;2023-02-15T03:01:21;2.20;97.00
68480;DHT22;55469;48.934;12.050;2023-02-15T03:04:10;2.10;97.00
68480;DHT22;55469;48.934;12.050;2023-02-15T03:06:46;2.10;97.00
68480;DHT22;55469;48.934;12.050;2023-02-15T03:09:33;2.10;97.00
68480;DHT22;55469;48.934;12.050;2023-02-15T03:12:11;2.10;97.00
68480;DHT22;55469;48.934;12.050;2023-02-15T03:14:40;2.10;97.00
68480;DHT22;55469;48.934;12.050;2023-02-15T03:17:07;2.10;97.00
68480;DHT22;55469;48.934;12.050;2023-02-15T03:19:35;2.10;97.00
68480;DHT22;55469;48.934;12.050;2023-02-15T03:22:16;2.10;97.00
68480;DHT22;55469;48.934;12.050;2023-02-15T03:24:55;2.10;97.00
68480;DHT22;55469;48.934;12.050;2023-02-15T03:27:27;2.10;97.00
68480;DHT22;55469;48.934;12.050;2023-02-15T03:29:58;2.10;97.00
68480;DHT22;55469;48.934;12.050;2023-02-15T03:32:26;2.10;97.00
68480;DHT22;55469;48.934;12.050;2023-02-15T03:34:53;2.10;97.00
68480;DHT22;55469;48.934;12.050;2023-02-15T03:37:32;2.10;97.00
68480;DHT22;55469;48.934;12.050;2023-02-15T03:43:19;2.10;97.00
68480;DHT22;55469;48.934;12.050;2023-02-15T03:45:54;2.10;97.00
68480;DHT22;55469;48.934;12.050;2023-02-15T03:48:30;2.10;97.00
68480;DHT22;55469;48.934;12.050;2023-02-15T03:51:05;2.10;97.10
68480;DHT22;55469;48.934;12.050;2023-02-15T03:53:52;2.00;97.00
68480;DHT22;55469;48.934;12.050;2023-02-15T03:56:20;2.00;97.00
68480;DHT22;55469;48.934;12.050;2023-02-15T03:58:46;2.00;97.00
68480;DHT22;55469;48.934;12.050;2023-02-15T04:01:34;2.00;97.00
68480;DHT22;55469;48.934;12.050;2023-02-15T04:04:40;2.10;97.00
68480;DHT22;55469;48.934;12.050;2023-02-15T04:07:11;2.00;97.00
68480;DHT22;55469;48.934;12.050;2023-02-15T04:09:37;2.00;97.00
68480;DHT22;55469;48.934;12.050;2023-02-15T04:12:21;2.00;97.00
68480;DHT22;55469;48.934;12.050;2023-02-15T04:14:47;2.00;97.00
68480;DHT22;55469;48.934;12.050;2023-02-15T04:17:32;2.00;97.00
68480;DHT22;55469;48.934;12.050;2023-02-15T04:19:57;2.00;97.20
68480;DHT22;55469;48.934;12.050;2023-02-15T04:22:42;2.00;97.50
68480;DHT22;55469;48.934;12.050;2023-02-15T04:25:27;2.00;97.00
68480;DHT22;55469;48.934;12.050;2023-02-15T04:27:55;2.00;97.00
68480;DHT22;55469;48.934;12.050;2023-02-15T04:30:24;2.00;97.00
68480;DHT22;55469;48.934;12.050;2023-02-15T04:32:50;2.00;97.00
68480;DHT22;55469;48.934;12.050;2023-02-15T04:35:16;2.00;97.00
68480;DHT22;55469;48.934;12.050;2023-02-15T04:37:43;2.00;97.00
68480;DHT22;55469;48.934;12.050;2023-02-15T04:40:13;2.00;97.00
68480;DHT22;55469;48.934;12.050;2023-02-15T04:42:39;2.00;97.00
68480;DHT22;55469;48.934;12.050;2023-02-15T04:45:05;2.00;97.00
68480;DHT22;55469;48.934;12.050;2023-02-15T04:47:31;2.00;97.00
68480;DHT22;55469;48.934;12.050;2023-02-15T04:49:57;2.00;97.00
68480;DHT22;55469;48.934;12.050;2023-02-15T04:52:23;1.90;97.00
68480;DHT22;55469;48.934;12.050;2023-02-15T04:54:49;2.00;97.00
68480;DHT22;55469;48.934;12.050;2023-02-15T04:57:15;2.00;97.00
68480;DHT22;55469;48.934;12.050;2023-02-15T04:59:40;1.90;97.00
68480;DHT22;55469;48.934;12.050;2023-02-15T05:02:06;2.00;97.00
68480;DHT22;55469;48.934;12.050;2023-02-15T05:04:32;2.00;97.00
68480;DHT22;55469;48.934;12.050;2023-02-15T05:06:58;1.90;96.90
68480;DHT22;55469;48.934;12.050;2023-02-15T05:09:24;2.00;97.00
68480;DHT22;55469;48.934;12.050;2023-02-15T05:11:50;1.90;97.00
68480;DHT22;55469;48.934;12.050;2023-02-15T05:14:15;1.90;97.00
68480;DHT22;55469;48.934;12.050;2023-02-15T05:16:42;1.90;96.90
68480;DHT22;55469;48.934;12.050;2023-02-15T05:19:08;1.90;96.90
68480;DHT22;55469;48.934;12.050;2023-02-15T05:21:34;1.90;96.90
68480;DHT22;55469;48.934;12.050;2023-02-15T05:23:59;1.90;97.00
68480;DHT22;55469;48.934;12.050;2023-02-15T05:26:25;1.90;97.00
68480;DHT22;55469;48.934;12.050;2023-02-15T05:29:10;1.90;96.90
68480;DHT22;55469;48.934;12.050;2023-02-15T05:31:36;1.90;97.00
68480;DHT22;55469;48.934;12.050;2023-02-15T05:34:02;1.90;97.00
68480;DHT22;55469;48.934;12.050;2023-02-15T05:36:28;1.90;97.00
68480;DHT22;55469;48.934;12.050;2023-02-15T05:38:55;1.80;97.00
68480;DHT22;55469;48.934;12.050;2023-02-15T05:41:21;1.90;97.00
68480;DHT22;55469;48.934;12.050;2023-02-15T05:43:46;1.80;97.00
68480;DHT22;55469;48.934;12.050;2023-02-15T05:46:12;1.80;97.00
68480;DHT22;55469;48.934;12.050;2023-02-15T05:48:38;1.80;96.90
68480;DHT22;55469;48.934;12.050;2023-02-15T05:51:09;1.80;97.40
68480;DHT22;55469;48.934;12.050;2023-02-15T05:53:39;1.90;97.00
68480;DHT22;55469;48.934;12.050;2023-02-15T05:56:07;1.80;97.00
68480;DHT22;55469;48.934;12.050;2023-02-15T05:58:36;1.80;97.00
68480;DHT22;55469;48.934;12.050;2023-02-15T06:01:10;1.80;97.00
68480;DHT22;55469;48.934;12.050;2023-02-15T06:03:37;1.80;97.00
68480;DHT22;55469;48.934;12.050;2023-02-15T06:06:03;1.80;97.00
68480;DHT22;55469;48.934;12.050;2023-02-15T06:08:30;1.80;97.00
68480;DHT22;55469;48.934;12.050;2023-02-15T06:10:57;1.80;97.00
68480;DHT22;55469;48.934;12.050;2023-02-15T06:13:22;1.80;97.00
68480;DHT22;55469;48.934;12.050;2023-02-15T06:15:48;1.80;97.00
68480;DHT22;55469;48.934;12.050;2023-02-15T06:18:14;1.80;97.00
68480;DHT22;55469;48.934;12.050;2023-02-15T06:20:39;1.80;97.00
68480;DHT22;55469;48.934;12.050;2023-02-15T06:23:05;1.80;97.00
68480;DHT22;55469;48.934;12.050;2023-02-15T06:25:31;1.80;97.00
68480;DHT22;55469;48.934;12.050;2023-02-15T06:27:56;1.70;97.00
68480;DHT22;55469;48.934;12.050;2023-02-15T06:30:22;1.70;97.00
68480;DHT22;55469;48.934;12.050;2023-02-15T06:32:48;1.80;97.00
68480;DHT22;55469;48.934;12.050;2023-02-15T06:35:14;1.80;97.00
68480;DHT22;55469;48.934;12.050;2023-02-15T06:37:39;1.80;97.00
68480;DHT22;55469;48.934;12.050;2023-02-15T06:40:06;1.80;97.00
68480;DHT22;55469;48.934;12.050;2023-02-15T06:42:32;1.70;97.50
68480;DHT22;55469;48.934;12.050;2023-02-15T06:44:58;1.80;97.00
68480;DHT22;55469;48.934;12.050;2023-02-15T06:47:25;1.80;97.00
68480;DHT22;55469;48.934;12.050;2023-02-15T06:49:51;1.80;97.00
68480;DHT22;55469;48.934;12.050;2023-02-15T06:52:17;1.80;97.00
68480;DHT22;55469;48.934;12.050;2023-02-15T06:54:43;1.80;97.00
68480;DHT22;55469;48.934;12.050;2023-02-15T06:57:08;1.80;96.90
68480;DHT22;55469;48.934;12.050;2023-02-15T06:59:35;1.70;96.90
68480;DHT22;55469;48.934;12.050;2023-02-15T07:02:00;1.70;96.90
68480;DHT22;55469;48.934;12.050;2023-02-15T07:04:26;1.70;96.90
68480;DHT22;55469;48.934;12.050;2023-02-15T07:06:53;1.70;96.90
68480;DHT22;55469;48.934;12.050;2023-02-15T07:09:19;1.70;96.90
68480;DHT22;55469;48.934;12.050;2023-02-15T07:11:45;1.70;96.90
68480;DHT22;55469;48.934;12.050;2023-02-15T07:14:29;1.70;96.90
68480;DHT22;55469;48.934;12.050;2023-02-15T07:16:55;1.70;96.90
68480;DHT22;55469;48.934;12.050;2023-02-15T07:19:20;1.70;96.90
68480;DHT22;55469;48.934;12.050;2023-02-15T07:21:46;1.70;96.90
68480;DHT22;55469;48.934;12.050;2023-02-15T07:24:12;1.70;96.90
68480;DHT22;55469;48.934;12.050;2023-02-15T07:26:38;1.70;96.90
68480;DHT22;55469;48.934;12.050;2023-02-15T07:29:03;1.70;96.90
68480;DHT22;55469;48.934;12.050;2023-02-15T07:31:29;1.70;96.90
68480;DHT22;55469;48.934;12.050;2023-02-15T07:33:55;1.80;96.80
68480;DHT22;55469;48.934;12.050;2023-02-15T07:36:21;1.70;96.80
68480;DHT22;55469;48.934;12.050;2023-02-15T07:38:47;1.70;96.80
68480;DHT22;55469;48.934;12.050;2023-02-15T07:41:14;1.70;96.80
68480;DHT22;55469;48.934;12.050;2023-02-15T07:43:42;1.70;96.80
68480;DHT22;55469;48.934;12.050;2023-02-15T07:46:11;1.70;96.80
68480;DHT22;55469;48.934;12.050;2023-02-15T07:48:39;1.70;96.80
68480;DHT22;55469;48.934;12.050;2023-02-15T07:51:07;1.70;96.80
68480;DHT22;55469;48.934;12.050;2023-02-15T07:53:35;1.70;96.80
68480;DHT22;55469;48.934;12.050;2023-02-15T07:56:03;1.70;96.70
68480;DHT22;55469;48.934;12.050;2023-02-15T07:58:32;1.80;96.70
68480;DHT22;55469;48.934;12.050;2023-02-15T08:01:27;1.70;96.70
68480;DHT22;55469;48.934;12.050;2023-02-15T08:03:58;1.80;96.70
68480;DHT22;55469;48.934;12.050;2023-02-15T08:06:26;1.70;96.70
68480;DHT22;55469;48.934;12.050;2023-02-15T08:08:53;1.70;96.70
68480;DHT22;55469;48.934;12.050;2023-02-15T08:11:22;1.70;96.70
68480;DHT22;55469;48.934;12.050;2023-02-15T08:16:42;1.70;96.60
68480;DHT22;55469;48.934;12.050;2023-02-15T08:19:23;1.80;96.70
68480;DHT22;55469;48.934;12.050;2023-02-15T08:21:55;1.70;96.70
68480;DHT22;55469;48.934;12.050;2023-02-15T08:24:29;1.70;96.70
68480;DHT22;55469;48.934;12.050;2023-02-15T08:26:57;1.70;96.70
68480;DHT22;55469;48.934;12.050;2023-02-15T08:29:26;1.70;96.70
68480;DHT22;55469;48.934;12.050;2023-02-15T08:31:56;1.70;96.70
68480;DHT22;55469;48.934;12.050;2023-02-15T08:34:24;1.70;96.60
68480;DHT22;55469;48.934;12.050;2023-02-15T08:36:50;1.80;96.70
68480;DHT22;55469;48.934;12.050;2023-02-15T08:39:16;1.70;96.60
68480;DHT22;55469;48.934;12.050;2023-02-15T08:41:44;1.70;96.60
68480;DHT22;55469;48.934;12.050;2023-02-15T08:44:12;1.70;96.60
68480;DHT22;55469;48.934;12.050;2023-02-15T08:46:40;1.70;96.60
68480;DHT22;55469;48.934;12.050;2023-02-15T08:49:07;1.80;96.60
68480;DHT22;55469;48.934;12.050;2023-02-15T08:51:35;1.70;96.60
68480;DHT22;55469;48.934;12.050;2023-02-15T08:54:05;1.70;97.00
68480;DHT22;55469;48.934;12.050;2023-02-15T08:56:40;1.80;96.60
68480;DHT22;55469;48.934;12.050;2023-02-15T08:59:07;1.70;96.50
68480;DHT22;55469;48.934;12.050;2023-02-15T09:01:38;1.80;96.50
68480;DHT22;55469;48.934;12.050;2023-02-15T09:04:06;1.80;96.50
68480;DHT22;55469;48.934;12.050;2023-02-15T09:06:37;1.70;96.50
68480;DHT22;55469;48.934;12.050;2023-02-15T09:09:03;1.70;96.50
68480;DHT22;55469;48.934;12.050;2023-02-15T09:11:34;1.70;96.50
68480;DHT22;55469;48.934;12.050;2023-02-15T09:14:07;1.80;96.50
68480;DHT22;55469;48.934;12.050;2023-02-15T09:16:36;1.80;96.50
68480;DHT22;55469;48.934;12.050;2023-02-15T09:19:03;1.70;96.50
68480;DHT22;55469;48.934;12.050;2023-02-15T09:21:31;1.70;96.60
68480;DHT22;55469;48.934;12.050;2023-02-15T09:24:00;1.70;96.60
68480;DHT22;55469;48.934;12.050;2023-02-15T09:26:29;1.70;96.60
68480;DHT22;55469;48.934;12.050;2023-02-15T09:28:58;1.80;96.60
68480;DHT22;55469;48.934;12.050;2023-02-15T09:31:28;1.80;96.60
68480;DHT22;55469;48.934;12.050;2023-02-15T09:33:56;1.70;96.50
68480;DHT22;55469;48.934;12.050;2023-02-15T09:36:26;1.70;96.50
68480;DHT22;55469;48.934;12.050;2023-02-15T09:39:08;1.80;96.50
68480;DHT22;55469;48.934;12.050;2023-02-15T09:44:50;1.70;96.50
68480;DHT22;55469;48.934;12.050;2023-02-15T09:53:17;1.70;96.60
68480;DHT22;55469;48.934;12.050;2023-02-15T10:01:40;1.70;96.60
68480;DHT22;55469;48.934;12.050;2023-02-15T10:10:45;1.70;96.60
68480;DHT22;55469;48.934;12.050;2023-02-15T10:13:33;1.80;96.60
68480;DHT22;55469;48.934;12.050;2023-02-15T10:19:00;1.80;96.60
68480;DHT22;55469;48.934;12.050;2023-02-15T10:24:48;1.70;96.50
68480;DHT22;55469;48.934;12.050;2023-02-15T10:27:22;1.80;96.50
68480;DHT22;55469;48.934;12.050;2023-02-15T10:41:21;1.80;96.50
68480;DHT22;55469;48.934;12.050;2023-02-15T10:44:10;1.80;96.40
68480;DHT22;55469;48.934;12.050;2023-02-15T10:52:54;1.80;96.40
68480;DHT22;55469;48.934;12.050;2023-02-15T11:02:17;1.80;96.40
68480;DHT22;55469;48.934;12.050;2023-02-15T11:04:57;1.80;96.40
68480;DHT22;55469;48.934;12.050;2023-02-15T11:07:40;1.80;96.40
68480;DHT22;55469;48.934;12.050;2023-02-15T11:12:41;1.90;96.40
68480;DHT22;55469;48.934;12.050;2023-02-15T11:15:32;1.80;96.40
68480;DHT22;55469;48.934;12.050;2023-02-15T11:21:20;1.90;96.40
68480;DHT22;55469;48.934;12.050;2023-02-15T11:23:48;1.90;96.40
68480;DHT22;55469;48.934;12.050;2023-02-15T11:26:21;1.90;96.40
68480;DHT22;55469;48.934;12.050;2023-02-15T11:29:28;1.90;96.40
68480;DHT22;55469;48.934;12.050;2023-02-15T11:32:30;1.90;96.40
68480;DHT22;55469;48.934;12.050;2023-02-15T11:35:04;1.90;96.40
68480;DHT22;55469;48.934;12.050;2023-02-15T11:37:48;1.90;96.40
68480;DHT22;55469;48.934;12.050;2023-02-15T11:40:57;1.90;96.40
68480;DHT22;55469;48.934;12.050;2023-02-15T11:44:19;1.90;96.30
68480;DHT22;55469;48.934;12.050;2023-02-15T11:47:12;1.90;96.40
68480;DHT22;55469;48.934;12.050;2023-02-15T11:50:05;1.90;96.40
68480;DHT22;55469;48.934;12.050;2023-02-15T11:52:52;1.90;96.40
68480;DHT22;55469;48.934;12.050;2023-02-15T11:55:33;1.90;96.30
68480;DHT22;55469;48.934;12.050;2023-02-15T11:58:29;1.90;96.30
68480;DHT22;55469;48.934;12.050;2023-02-15T12:01:46;1.90;96.40
68480;DHT22;55469;48.934;12.050;2023-02-15T12:04:43;1.90;96.40
68480;DHT22;55469;48.934;12.050;2023-02-15T12:07:52;1.90;96.50
68480;DHT22;55469;48.934;12.050;2023-02-15T12:14:50;1.90;96.30
68480;DHT22;55469;48.934;12.050;2023-02-15T12:21:33;1.90;96.30
68480;DHT22;55469;48.934;12.050;2023-02-15T12:24:34;1.90;96.30
68480;DHT22;55469;48.934;12.050;2023-02-15T12:28:33;2.00;96.40
68480;DHT22;55469;48.934;12.050;2023-02-15T12:41:57;2.00;96.30
68480;DHT22;55469;48.934;12.050;2023-02-15T12:45:35;2.00;96.40
68480;DHT22;55469;48.934;12.050;2023-02-15T12:48:31;2.00;96.40
68480;DHT22;55469;48.934;12.050;2023-02-15T12:55:41;2.00;96.40
68480;DHT22;55469;48.934;12.050;2023-02-15T12:59:33;2.00;96.30
68480;DHT22;55469;48.934;12.050;2023-02-15T13:02:12;2.00;96.30
68480;DHT22;55469;48.934;12.050;2023-02-15T13:09:23;2.00;96.30
68480;DHT22;55469;48.934;12.050;2023-02-15T13:15:59;2.00;96.30
68480;DHT22;55469;48.934;12.050;2023-02-15T13:18:43;2.00;96.30
68480;DHT22;55469;48.934;12.050;2023-02-15T13:23:38;2.00;96.30
68480;DHT22;55469;48.934;12.050;2023-02-15T13:26:13;2.00;96.30
68480;DHT22;55469;48.934;12.050;2023-02-15T13:28:45;2.00;96.30
68480;DHT22;55469;48.934;12.050;2023-02-15T13:31:19;2.10;96.30
68480;DHT22;55469;48.934;12.050;2023-02-15T13:33:56;2.00;96.30
68480;DHT22;55469;48.934;12.050;2023-02-15T13:42:18;2.10;96.30
68480;DHT22;55469;48.934;12.050;2023-02-15T13:50:28;2.10;96.30
68480;DHT22;55469;48.934;12.050;2023-02-15T13:55:47;2.10;96.30
68480;DHT22;55469;48.934;12.050;2023-02-15T13:58:33;2.10;96.30
68480;DHT22;55469;48.934;12.050;2023-02-15T14:08:09;2.10;96.30
68480;DHT22;55469;48.934;12.050;2023-02-15T14:10:51;2.10;96.30
68480;DHT22;55469;48.934;12.050;2023-02-15T14:13:38;2.10;96.30
68480;DHT22;55469;48.934;12.050;2023-02-15T14:16:35;2.10;96.30
68480;DHT22;55469;48.934;12.050;2023-02-15T14:27:22;2.10;96.30
68480;DHT22;55469;48.934;12.050;2023-02-15T14:33:06;2.10;96.30
68480;DHT22;55469;48.934;12.050;2023-02-15T14:35:34;2.10;96.20
68480;DHT22;55469;48.934;12.050;2023-02-15T14:44:13;2.10;96.30
68480;DHT22;55469;48.934;12.050;2023-02-15T14:47:05;2.10;96.20
68480;DHT22;55469;48.934;12.050;2023-02-15T14:49:33;2.10;96.30
68480;DHT22;55469;48.934;12.050;2023-02-15T14:52:10;2.10;96.20
68480;DHT22;55469;48.934;12.050;2023-02-15T15:04:35;2.10;96.30
68480;DHT22;55469;48.934;12.050;2023-02-15T15:07:18;2.10;96.30
68480;DHT22;55469;48.934;12.050;2023-02-15T15:09:58;2.10;96.30
68480;DHT22;55469;48.934;12.050;2023-02-15T15:14:51;2.10;96.40
68480;DHT22;55469;48.934;12.050;2023-02-15T15:22:42;2.10;96.30
68480;DHT22;55469;48.934;12.050;2023-02-15T15:25:43;2.10;96.40
68480;DHT22;55469;48.934;12.050;2023-02-15T15:36:49;2.10;96.40
68480;DHT22;55469;48.934;12.050;2023-02-15T15:42:51;2.10;96.40
68480;DHT22;55469;48.934;12.050;2023-02-15T15:48:30;2.10;96.40
68480;DHT22;55469;48.934;12.050;2023-02-15T15:51:12;2.10;96.40
68480;DHT22;55469;48.934;12.050;2023-02-15T15:53:48;2.10;96.90
68480;DHT22;55469;48.934;12.050;2023-02-15T15:56:28;2.10;96.40
68480;DHT22;55469;48.934;12.050;2023-02-15T15:59:00;2.10;96.40
68480;DHT22;55469;48.934;12.050;2023-02-15T16:01:30;2.10;96.40
68480;DHT22;55469;48.934;12.050;2023-02-15T16:04:00;2.10;96.40
68480;DHT22;55469;48.934;12.050;2023-02-15T16:06:31;2.10;96.40
68480;DHT22;55469;48.934;12.050;2023-02-15T16:09:08;2.10;96.40
68480;DHT22;55469;48.934;12.050;2023-02-15T16:11:37;2.10;96.80
68480;DHT22;55469;48.934;12.050;2023-02-15T16:14:15;2.10;96.40
68480;DHT22;55469;48.934;12.050;2023-02-15T16:16:48;2.10;96.40
68480;DHT22;55469;48.934;12.050;2023-02-15T16:19:26;2.10;96.30
68480;DHT22;55469;48.934;12.050;2023-02-15T16:21:54;2.10;96.30
68480;DHT22;55469;48.934;12.050;2023-02-15T16:27:33;2.10;96.30
68480;DHT22;55469;48.934;12.050;2023-02-15T16:30:32;2.10;96.30
68480;DHT22;55469;48.934;12.050;2023-02-15T16:33:10;2.10;96.40
68480;DHT22;55469;48.934;12.050;2023-02-15T16:35:52;2.10;96.40
68480;DHT22;55469;48.934;12.050;2023-02-15T16:41:21;2.00;96.40
68480;DHT22;55469;48.934;12.050;2023-02-15T16:43:50;2.00;96.40
68480;DHT22;55469;48.934;12.050;2023-02-15T16:46:23;2.00;96.40
68480;DHT22;55469;48.934;12.050;2023-02-15T16:48:52;2.00;96.50
68480;DHT22;55469;48.934;12.050;2023-02-15T16:51:26;2.00;96.40
68480;DHT22;55469;48.934;12.050;2023-02-15T16:53:55;2.00;96.50
68480;DHT22;55469;48.934;12.050;2023-02-15T16:56:28;2.00;96.50
68480;DHT22;55469;48.934;12.050;2023-02-15T16:58:56;2.00;96.50
68480;DHT22;55469;48.934;12.050;2023-02-15T17:01:25;2.00;96.60
68480;DHT22;55469;48.934;12.050;2023-02-15T17:04:21;2.00;96.50
68480;DHT22;55469;48.934;12.050;2023-02-15T17:07:04;2.00;96.50
68480;DHT22;55469;48.934;12.050;2023-02-15T17:09:33;2.00;96.50
68480;DHT22;55469;48.934;12.050;2023-02-15T17:11:59;2.00;96.50
68480;DHT22;55469;48.934;12.050;2023-02-15T17:14:31;2.00;96.50
68480;DHT22;55469;48.934;12.050;2023-02-15T17:17:02;2.00;96.50
68480;DHT22;55469;48.934;12.050;2023-02-15T17:19:40;2.00;96.60
68480;DHT22;55469;48.934;12.050;2023-02-15T17:22:21;2.00;96.50
68480;DHT22;55469;48.934;12.050;2023-02-15T17:24:50;2.00;96.50
68480;DHT22;55469;48.934;12.050;2023-02-15T17:27:25;2.00;96.50
68480;DHT22;55469;48.934;12.050;2023-02-15T17:32:30;2.00;97.00
68480;DHT22;55469;48.934;12.050;2023-02-15T17:40:23;2.00;96.60
68480;DHT22;55469;48.934;12.050;2023-02-15T17:42:50;1.90;96.60
68480;DHT22;55469;48.934;12.050;2023-02-15T17:45:16;2.00;96.60
68480;DHT22;55469;48.934;12.050;2023-02-15T17:47:43;1.90;97.10
68480;DHT22;55469;48.934;12.050;2023-02-15T17:50:24;2.00;96.60
68480;DHT22;55469;48.934;12.050;2023-02-15T17:52:51;1.90;96.60
68480;DHT22;55469;48.934;12.050;2023-02-15T17:55:20;1.90;96.60
68480;DHT22;55469;48.934;12.050;2023-02-15T17:58:12;1.90;96.60
68480;DHT22;55469;48.934;12.050;2023-02-15T18:00:42;2.00;96.60
68480;DHT22;55469;48.934;12.050;2023-02-15T18:06:25;1.90;96.60
68480;DHT22;55469;48.934;12.050;2023-02-15T18:09:11;1.90;96.60
68480;DHT22;55469;48.934;12.050;2023-02-15T18:12:00;1.90;96.70
68480;DHT22;55469;48.934;12.050;2023-02-15T18:14:26;1.90;96.70
68480;DHT22;55469;48.934;12.050;2023-02-15T18:16:53;1.90;96.70
68480;DHT22;55469;48.934;12.050;2023-02-15T18:19:24;1.90;96.70
68480;DHT22;55469;48.934;12.050;2023-02-15T18:21:51;1.90;96.70
68480;DHT22;55469;48.934;12.050;2023-02-15T18:24:24;1.90;96.70
68480;DHT22;55469;48.934;12.050;2023-02-15T18:26:52;1.90;96.70
68480;DHT22;55469;48.934;12.050;2023-02-15T18:29:19;1.90;96.70
68480;DHT22;55469;48.934;12.050;2023-02-15T18:31:46;1.90;96.70
68480;DHT22;55469;48.934;12.050;2023-02-15T18:34:31;1.90;96.70
68480;DHT22;55469;48.934;12.050;2023-02-15T18:37:01;1.90;96.80
68480;DHT22;55469;48.934;12.050;2023-02-15T18:39:41;1.90;96.70
68480;DHT22;55469;48.934;12.050;2023-02-15T18:42:22;1.90;96.70
68480;DHT22;55469;48.934;12.050;2023-02-15T18:45:03;1.90;96.70
68480;DHT22;55469;48.934;12.050;2023-02-15T18:47:37;1.80;96.70
68480;DHT22;55469;48.934;12.050;2023-02-15T18:50:03;1.80;96.70
68480;DHT22;55469;48.934;12.050;2023-02-15T18:52:33;1.80;96.70
68480;DHT22;55469;48.934;12.050;2023-02-15T18:55:03;1.80;96.70
68480;DHT22;55469;48.934;12.050;2023-02-15T18:57:34;1.80;96.70
68480;DHT22;55469;48.934;12.050;2023-02-15T18:59:59;1.90;96.70
68480;DHT22;55469;48.934;12.050;2023-02-15T19:02:25;1.80;96.70
68480;DHT22;55469;48.934;12.050;2023-02-15T19:04:52;1.80;96.70
68480;DHT22;55469;48.934;12.050;2023-02-15T19:07:27;1.90;96.70
68480;DHT22;55469;48.934;12.050;2023-02-15T19:09:58;1.80;96.70
68480;DHT22;55469;48.934;12.050;2023-02-15T19:12:28;1.80;96.70
68480;DHT22;55469;48.934;12.050;2023-02-15T19:14:54;1.80;96.70
68480;DHT22;55469;48.934;12.050;2023-02-15T19:17:22;1.80;97.20
68480;DHT22;55469;48.934;12.050;2023-02-15T19:19:50;1.80;96.70
68480;DHT22;55469;48.934;12.050;2023-02-15T19:22:28;1.80;96.70
68480;DHT22;55469;48.934;12.050;2023-02-15T19:25:00;1.80;96.70
68480;DHT22;55469;48.934;12.050;2023-02-15T19:27:30;1.80;97.20
68480;DHT22;55469;48.934;12.050;2023-02-15T19:30:06;1.80;96.70
68480;DHT22;55469;48.934;12.050;2023-02-15T19:32:43;1.80;96.70
68480;DHT22;55469;48.934;12.050;2023-02-15T19:35:14;1.80;96.70
68480;DHT22;55469;48.934;12.050;2023-02-15T19:37:43;1.80;96.80
68480;DHT22;55469;48.934;12.050;2023-02-15T19:40:27;1.80;96.80